ADDS METAR Data INFO
IDs: Format: Raw Decoded Include TAF

Data at: 0931 UTC 19 Aug 2017

METAR for:KAUS (Austin/Bergstrom Int, TX, US)
Text:KAUS 190853Z 00000KT 10SM R17L/5500V6000FT SCT016 25/22 A3000 RMK AO2 SLP145 T02500222 56006
Temperature: 25.0°C ( 77°F)
Dewpoint: 22.2°C ( 72°F) [RH = 84%]
Pressure (altimeter):30.00 inches Hg (1016.0 mb) [Sea level pressure: 1014.5 mb]
Winds:calm
Visibility:10 or more sm (16+ km)
Ceiling:at least 12,000 feet AGL
Clouds: scattered clouds at 1600 feet AGL